Flight Track Log - Related Links

Times and Time Zones

All times are in EDT time to prevent confusion due to time zone crossing. See the N762NC flight status page for this flight to view local times or setup timezone preferences in your user account.

Time Position Orientation Groundspeed Altitude Reporting Facility
EDT Latitude Longitude Course Direction KTS MPH feet Rate Location/Type
Fri 09:57:34 AM 40.5000 -80.3028 177° South 160 184 3,000  Level Cleveland Center
Fri 09:58:37 AM 40.4342 -80.3194 191° South 234 269 4,800 1,680 Climbing Cleveland Center
Fri 09:59:39 AM 40.3606 -80.3111 175° South 251 289 6,500 1,790 Climbing Cleveland Center
Fri 10:00:00 AM 40.1688 -80.4507 217° Southwest  Level Estimated
Fri 10:00:41 AM 40.2944 -80.3064 177° South 261 300 8,500  Level Cleveland Center
Fri 10:01:00 AM 40.0880 -80.5049 215° Southwest  Level Estimated
Fri 10:01:43 AM 40.2186 -80.3053 179° South 273 314 9,900  Level Cleveland Center
Fri 10:02:00 AM 39.9974 -80.4984 177° South  Level FlightAware Approximate
Fri 10:02:45 AM 40.1122 -80.3003 178° South 325 374 11,000  Level Cleveland Center
Fri 10:03:47 AM 40.0186 -80.2908 176° South 337 388 13,000 2,032 Climbing Cleveland Center
Fri 10:04:49 AM 39.9358 -80.3442 206° Southwest 330 380 15,200 1,694 Climbing Cleveland Center
Fri 10:05:51 AM 39.8600 -80.4042 211° Southwest 320 368 16,500 1,548 Climbing Cleveland Center
Fri 10:06:53 AM 39.7908 -80.4786 220° Southwest 322 371 18,400 1,597 Climbing Cleveland Center
Fri 10:07:55 AM 39.7281 -80.5639 226° Southwest 324 373 19,800 1,500 Climbing Cleveland Center
Fri 10:08:57 AM 39.6461 -80.6583 222° Southwest 340 391 21,500 1,694 Climbing Cleveland Center
Fri 10:09:59 AM 39.5683 -80.7294 215° Southwest 343 395 23,300 1,273 Climbing Cleveland Center
Fri 10:11:09 AM 39.4822 -80.8100 216° Southwest 338 389 24,300 1,136 Climbing Indianapolis Center
Fri 10:12:11 AM 39.4014 -80.8794 214° Southwest 346 398 25,800 1,161 Climbing Indianapolis Center
Fri 10:13:13 AM 39.3178 -80.9444 211° Southwest 347 399 26,700 774 Climbing Indianapolis Center
Fri 10:14:15 AM 39.2322 -81.0111 211° Southwest 355 409 27,400 677 Climbing Indianapolis Center
Fri 10:15:17 AM 39.1269 -81.0908 210° Southwest 362 417 28,100 290 Climbing Indianapolis Center
Fri 10:16:19 AM 39.0367 -81.1597 211° Southwest 374 430 28,000 -48 Descending Indianapolis Center
Fri 10:17:21 AM 38.9372 -81.2158 204° Southwest 385 443 28,000  Level Indianapolis Center
Fri 10:18:23 AM 38.8353 -81.2689 202° Southwest 391 450 28,000  Level Indianapolis Center
Fri 10:19:25 AM 38.7325 -81.3217 202° Southwest 392 451 28,000  Level Indianapolis Center
Fri 10:20:27 AM 38.6283 -81.3764 202° Southwest 393 452 28,000  Level Indianapolis Center
Fri 10:21:29 AM 38.5253 -81.4306 202° Southwest 392 451 28,000  Level Indianapolis Center
Fri 10:22:31 AM 38.4225 -81.4828 202° Southwest 393 452 28,000  Level Indianapolis Center
Fri 10:23:33 AM 38.3186 -81.5339 201° Southwest 397 457 28,000  Level Indianapolis Center
Fri 10:24:35 AM 38.1972 -81.5975 202° Southwest 393 452 28,000 194 Level Indianapolis Center
Fri 10:25:37 AM 38.0947 -81.6517 203° Southwest 396 456 28,400 581 Climbing Indianapolis Center
Fri 10:26:39 AM 37.9978 -81.7064 204° Southwest 385 443 29,200 774 Climbing Indianapolis Center
Fri 10:27:41 AM 37.9058 -81.7586 204° Southwest 366 421 30,000 387 Climbing Indianapolis Center
Fri 10:28:43 AM 37.8108 -81.8056 201° Southwest 364 419 30,000  Level Indianapolis Center
Fri 10:29:46 AM 37.6983 -81.8619 202° Southwest 371 427 30,000  Level Indianapolis Center
Fri 10:30:48 AM 37.5989 -81.9106 201° Southwest 379 436 30,000  Level Indianapolis Center
Fri 10:31:50 AM 37.4986 -81.9583 201° Southwest 383 441 30,000  Level Indianapolis Center
Fri 10:32:52 AM 37.3978 -82.0086 202° Southwest 386 444 30,000  Level Indianapolis Center
Fri 10:33:54 AM 37.2947 -82.0611 202° Southwest 394 453 30,000  Level Indianapolis Center
Fri 10:34:56 AM 37.1939 -82.1156 203° Southwest 393 452 30,000  Level Indianapolis Center
Fri 10:35:58 AM 37.0739 -82.1783 203° Southwest 396 456 30,000  Level Indianapolis Center
Fri 10:37:00 AM 36.9711 -82.2339 203° Southwest 398 458 30,000  Level Indianapolis Center
Fri 10:38:02 AM 36.8683 -82.2883 203° Southwest 398 458 30,000  Level Indianapolis Center
Fri 10:39:04 AM 36.7644 -82.3436 203° Southwest 401 461 30,000  Level Indianapolis Center
Fri 10:40:06 AM 36.6606 -82.3992 203° Southwest 402 463 30,000  Level Indianapolis Center
Fri 10:41:08 AM 36.5581 -82.4558 204° Southwest 400 460 30,000  Level Indianapolis Center
Fri 10:42:10 AM 36.4394 -82.5194 203° Southwest 397 457 30,000  Level Indianapolis Center
Fri 10:43:12 AM 36.3369 -82.5733 203° Southwest 396 456 30,000  Level Indianapolis Center
Fri 10:44:19 AM 36.2272 -82.6206 199° South 401 461 30,000  Level Atlanta Center
Fri 10:45:19 AM 36.1214 -82.6636 198° South 401 461 30,000  Level Atlanta Center
Fri 10:46:19 AM 36.0156 -82.7039 197° South 401 461 30,000  Level Atlanta Center
Fri 10:47:19 AM 35.9097 -82.7442 197° South 401 461 30,000  Level Atlanta Center
Fri 10:48:19 AM 35.8036 -82.7867 198° South 401 461 30,000  Level Atlanta Center
Fri 10:49:19 AM 35.6936 -82.8267 196° South 401 461 30,000  Level Atlanta Center
Fri 10:50:19 AM 35.5897 -82.8742 200° South 401 461 30,000 -50 Level Atlanta Center
Fri 10:51:19 AM 35.4922 -82.9342 207° Southwest 401 461 29,900 -400 Descending Atlanta Center
Fri 10:52:19 AM 35.3925 -82.9942 206° Southwest 401 461 29,200 -750 Descending Atlanta Center
Fri 10:53:19 AM 35.2886 -83.0542 205° Southwest 407 468 28,400 -850 Descending Atlanta Center
Fri 10:54:19 AM 35.1808 -83.1214 207° Southwest 402 463 27,500 -900 Descending Atlanta Center
Fri 10:55:19 AM 35.0831 -83.1808 206° Southwest 402 463 26,600 -950 Descending Atlanta Center
Fri 10:56:19 AM 34.9856 -83.2453 208° Southwest 402 463 25,600 -950 Descending Atlanta Center
Fri 10:57:19 AM 34.8856 -83.3119 209° Southwest 402 463 24,700 -850 Descending Atlanta Center
Fri 10:58:19 AM 34.7942 -83.3608 204° Southwest 409 471 23,900 -800 Descending Atlanta Center
Fri 10:59:19 AM 34.6900 -83.4147 203° Southwest 404 465 23,100 -2,100 Descending Atlanta Center
Fri 11:00:19 AM 34.5819 -83.4686 202° Southwest 392 451 19,700 -3,050 Descending Atlanta Center
Fri 11:01:19 AM 34.4881 -83.5247 206° Southwest 381 438 17,000 -2,800 Descending Atlanta Center
Fri 11:02:19 AM 34.3967 -83.5781 206° Southwest 375 432 14,100 -2,250 Descending Atlanta Center
Fri 11:03:19 AM 34.3069 -83.6339 207° Southwest 367 422 12,500 -1,000 Descending Atlanta Center
Fri 11:04:19 AM 34.2278 -83.6794 205° Southwest 356 410 12,100 -250 Descending Atlanta Center
Fri 11:05:19 AM 34.1528 -83.7475 217° Southwest 350 403 12,000 -50 Descending Atlanta Center
Fri 11:06:19 AM 34.0906 -83.8181 223° Southwest 332 382 12,000 50 Level Atlanta Center
Fri 11:07:19 AM 34.0425 -83.8808 227° Southwest 283 326 12,100 66 Climbing Atlanta Center
Fri 11:07:50 AM 34.0167 -83.9333 239° Southwest 282 325 12,100 -527 Level Atlanta TRACON
Fri 11:08:50 AM 33.9500 -83.9667 203° Southwest 267 307 11,300 -1,007 Descending Atlanta TRACON
Fri 11:10:19 AM 33.8381 -83.9564 176° South 263 303 9,600 -1,289 Descending Atlanta Center
Fri 11:11:19 AM 33.7672 -83.9789 195° South 271 312 8,100 -1,400 Descending Atlanta Center
Fri 11:12:19 AM 33.7025 -84.0089 201° Southwest 256 295 6,800 -1,050 Descending Atlanta Center
Fri 11:13:19 AM 33.6586 -84.0614 225° Southwest 241 277 6,000 -500 Descending Atlanta Center
Fri 11:14:19 AM 33.6314 -84.1186 240° Southwest 215 247 5,800 -722 Descending Atlanta Center
Fri 11:15:32 AM 33.6333 -84.2000 272° West 215 247 4,400 -1,128 Descending Atlanta TRACON
Fri 11:16:32 AM 33.6333 -84.2667 270° West 182 209 3,300 -950 Descending Atlanta TRACON
Fri 11:17:32 AM 33.6333 -84.3333 270° West 175 201 2,500 -850 Descending Atlanta TRACON
Fri 11:18:32 AM 33.6333 -84.3833 270° West 150 173 1,600 -900 Descending Atlanta TRACON

Login

Don't have an account? Register now (free) for customized features, flight alerts, and more!